Weather observations for the past three days for
Duluth - Sky Harbor Airport
Imperial (Metric)
Date Time (cdt) Wind (mph) Vis. (mi.) Weather Sky Cond. Temperature (ºF) Relative Humidity Wind Chill (°F) Heat Index (°F) Pressure Precipitation (in)
Air Dwpt 6 hour altimeter (in) sea level (mb) 1 hr 3 hr 6 hr
Max. Min.
07 04:55 W 12 10.00 A Few Clouds FEW041 FEW049 39.2 28.4 65% 33 29.87 0.0
07 04:35 W 8 10.00 A Few Clouds FEW042 FEW050 39.2 26.6 61% 34 29.87 0.0
07 04:15 W 9 10.00 Partly Cloudy FEW034 SCT047 SCT055 39.2 26.6 61% 34 29.87 0.0
07 03:55 W 13 10.00 Mostly Cloudy FEW046 BKN060 BKN075 39.2 26.6 61% 32 29.87 0.0
07 03:35 W 8 10.00 Overcast OVC070 39.2 28.4 65% 34 29.87 0.0
07 03:15 SW 7 10.00 Overcast OVC070 39.2 28.4 65% 35 29.87 0.0
07 02:55 SW 7 10.00 Overcast OVC070 41 28.4 61% 37 29.87 0.0
07 02:35 SW 9 10.00 Overcast OVC070 41 28.4 61% 36 29.87 0.0
07 02:15 SW 9 10.00 Overcast FEW049 OVC070 41 28.4 61% 36 29.88 0.0
07 01:55 SW 7 10.00 Overcast SCT050 SCT055 OVC070 41 28.4 61% 37 29.88 0.0
07 01:35 SW 8 10.00 Overcast SCT050 BKN060 OVC070 41 28.4 61% 36 29.89 0.0
07 01:15 SW 7 10.00 Overcast BKN060 OVC070 41 28.4 61% 37 29.89 0.0
07 00:55 SW 7 10.00 Overcast OVC065 41 28.4 61% 37 29.9 0.0
07 00:35 SW 6 10.00 Overcast OVC070 41 28.4 61% 38 29.9 0.0
07 00:15 SW 6 10.00 Overcast OVC070 41 26.6 57% 38 29.91 0.0
06 23:55 SW 7 10.00 Overcast OVC070 41 28.4 61% 37 29.91 0.0
06 23:35 SW 5 10.00 Overcast OVC070 41 26.6 57% 38 29.91 0.0
06 23:15 SW 5 10.00 Overcast OVC070 41 26.6 57% 38 29.92 0.0
06 22:55 SW 8 10.00 Overcast OVC065 42.8 26.6 53% 39 29.92 0.0
06 22:35 W 6 10.00 Overcast OVC060 42.8 26.6 53% 40 29.92 0.0
06 22:15 W 8 10.00 Overcast OVC060 42.8 26.6 53% 39 29.93 0.0
06 21:55 W 8 10.00 Overcast OVC060 42.8 26.6 53% 39 29.93 0.0
06 21:35 W 10 10.00 Overcast OVC060 42.8 26.6 53% 38 29.93 0.0
06 21:15 W 14 10.00 Overcast OVC065 42.8 26.6 53% 36 29.92 0.0
06 20:55 W 10 10.00 Overcast OVC065 42.8 26.6 53% 38 29.92 0.0
06 20:35 W 12 10.00 Overcast OVC060 42.8 26.6 53% 37 29.92 0.0
06 20:15 W 10 10.00 Overcast OVC060 42.8 26.6 53% 38 29.92 0.0
06 19:55 W 13 10.00 Overcast OVC060 42.8 28.4 57% 37 29.92 0.0
06 19:35 W 13 10.00 Overcast OVC060 42.8 28.4 57% 37 29.92 0.0
06 19:15 W 13 G 22 10.00 Overcast OVC060 42.8 28.4 57% 37 29.92 0.0
06 18:55 W 17 10.00 Overcast BKN055 OVC070 44.6 28.4 53% 38 29.92 0.0
06 18:35 W 20 10.00 Overcast BKN050 OVC060 44.6 28.4 53% 37 29.92 0.0
06 18:15 W 16 10.00 Overcast SCT050 OVC060 44.6 26.6 49% 38 29.92 0.0
06 17:55 W 16 10.00 Overcast BKN055 OVC065 44.6 26.6 49% 38 29.92 0.0
06 17:35 W 15 10.00 Overcast OVC060 44.6 24.8 46% 38 29.92 0.0
06 17:15 W 17 10.00 Overcast OVC060 44.6 24.8 46% 38 29.92 0.0
06 16:55 W 17 10.00 Overcast OVC055 44.6 24.8 46% 38 29.92 0.0
06 16:35 W 16 10.00 Overcast OVC055 44.6 24.8 46% 38 29.92 0.0
06 16:15 W 15 10.00 Overcast OVC050 44.6 24.8 46% 38 29.92 0.0
06 15:55 W 16 10.00 Overcast SCT050 OVC055 44.6 24.8 46% 38 29.92 0.0
06 15:35 W 17 10.00 Overcast FEW050 OVC055 44.6 24.8 46% 38 29.92 0.0
06 15:15 W 13 G 21 10.00 Overcast SCT048 OVC060 44.6 26.6 49% 39 29.93 0.0
06 14:55 W 15 10.00 Overcast BKN047 OVC055 44.6 26.6 49% 38 29.93 0.0
06 14:35 SW 15 10.00 Overcast BKN045 OVC050 44.6 26.6 49% 38 29.93 0.0
06 14:15 W 15 10.00 Overcast BKN045 OVC055 42.8 26.6 53% 36 29.94 0.0
06 13:55 W 15 10.00 Overcast FEW032 BKN046 OVC055 42.8 26.6 53% 36 29.94 0.0
06 13:35 W 18 G 25 10.00 Overcast BKN046 OVC050 42.8 26.6 53% 35 29.94 0.0
06 13:15 NW 15 10.00 Overcast BKN049 OVC055 42.8 24.8 49% 36 29.94 0.0
06 12:55 W 16 10.00 Overcast OVC048 42.8 24.8 49% 36 29.94 0.0
06 12:35 W 14 G 21 10.00 Overcast OVC048 42.8 23 46% 36 29.94 0.0
06 12:15 NW 17 10.00 Overcast OVC047 42.8 24.8 49% 35 29.94 0.0
06 11:55 W 16 10.00 Overcast OVC047 42.8 23 46% 36 29.95 0.0
06 11:35 W 13 10.00 Overcast OVC047 41 23 49% 34 29.95 0.0
06 11:15 W 15 G 22 10.00 Overcast SCT044 BKN050 OVC055 41 23 49% 34 29.95 0.0
06 10:55 W 16 10.00 Overcast FEW043 BKN050 OVC055 41 24.8 53% 33 29.95 0.0
06 10:35 NW 15 G 22 10.00 Overcast BKN044 OVC055 41 23 49% 34 29.95 0.0
06 10:15 W 12 10.00 Overcast BKN041 OVC046 41 23 49% 35 29.96 0.0
06 09:55 NW 14 10.00 Overcast OVC040 39.2 23 52% 32 29.96 0.0
06 09:35 W 15 10.00 Overcast OVC041 39.2 24.8 56% 31 29.96 0.0
06 09:15 NW 18 10.00 Overcast OVC041 39.2 23 52% 31 29.96 0.0
06 08:55 NW 16 G 24 10.00 Overcast OVC041 39.2 23 52% 31 29.96 0.0
06 08:35 NW 17 G 25 10.00 Mostly Cloudy BKN041 39.2 23 52% 31 29.96 0.0
06 08:15 W 16 10.00 Fair CLR 39.2 23 52% 31 29.95 0.0
06 07:55 W 13 10.00 Fair CLR 37.4 24.8 60% 30 29.95 0.0
06 07:35 NW 12 10.00 Fair CLR 37.4 24.8 60% 30 29.95 0.0
06 07:15 NW 10 G 17 10.00 Fair CLR 35.6 24.8 65% 29 29.94 0.0
06 06:55 W 13 10.00 Mostly Cloudy BKN060 33.8 24.8 70% 25 29.94 0.0
06 06:35 W 13 10.00 Overcast OVC065 33.8 24.8 70% 25 29.93 0.0
06 06:15 W 14 10.00 Overcast OVC065 33.8 23 65% 25 29.93 0.0
06 05:55 NW 14 10.00 Mostly Cloudy BKN065 33.8 24.8 70% 25 29.92 0.0
06 05:35 W 15 10.00 A Few Clouds FEW055 33.8 23 65% 25 29.92 0.0
06 05:15 W 14 10.00 Mostly Cloudy BKN055 BKN065 33.8 23 65% 25 29.93 0.0
06 04:55 W 15 10.00 Mostly Cloudy SCT055 BKN065 35.6 23 60% 27 29.92 0.0
06 04:35 NW 14 10.00 A Few Clouds FEW050 35.6 23 60% 27 29.92 0.0
06 04:15 NW 16 10.00 Fair CLR 35.6 23 60% 27 29.92 0.0
06 03:55 NW 16 10.00 Fair CLR 35.6 23 60% 27 29.92 0.0
06 03:35 NW 15 10.00 A Few Clouds FEW050 35.6 23 60% 27 29.91 0.0
06 03:15 NW 12 10.00 Partly Cloudy FEW050 SCT060 35.6 21.2 56% 28 29.91 0.0
06 02:55 NW 13 G 21 10.00 Overcast FEW041 BKN049 OVC055 37.4 23 56% 30 29.91 0.0
06 02:35 NW 16 10.00 Overcast OVC045 39.2 23 52% 31 29.9 0.0
06 02:15 NW 10 G 18 10.00 Overcast OVC046 39.2 23 52% 33 29.9 0.0
06 01:55 W 14 G 20 10.00 Overcast OVC046 39.2 21.2 48% 32 29.9 0.0
06 01:35 NW 17 G 23 10.00 Overcast OVC046 39.2 21.2 48% 31 29.9 0.0
06 01:15 NW 14 10.00 Overcast OVC046 39.2 21.2 48% 32 29.9 0.0
06 00:55 W 14 G 22 10.00 Overcast OVC045 39.2 23 52% 32 29.9 0.0
06 00:35 W 13 10.00 Overcast OVC045 39.2 23 52% 32 29.9 0.0
06 00:15 NW 12 10.00 Overcast OVC046 39.2 21.2 48% 33 29.89 0.0
05 23:55 NW 15 G 22 10.00 Overcast OVC047 39.2 21.2 48% 31 29.89 0.0
05 23:35 NW 15 10.00 Overcast OVC046 39.2 21.2 48% 31 29.89 0.0
05 23:15 NW 14 10.00 Overcast OVC046 39.2 23 52% 32 29.89 0.0
05 22:55 W 15 10.00 Overcast OVC046 39.2 23 52% 31 29.89 0.0
05 22:35 W 14 10.00 Overcast OVC046 41 23 49% 34 29.89 0.0
05 22:15 NW 14 10.00 Overcast OVC047 41 23 49% 34 29.89 0.0
05 21:55 NW 14 10.00 Overcast OVC048 41 23 49% 34 29.89 0.0
05 21:35 NW 16 10.00 Overcast OVC049 41 23 49% 33 29.88 0.0
05 21:15 NW 18 10.00 Overcast OVC050 41 23 49% 33 29.87 0.0
05 20:55 NW 16 G 25 10.00 Overcast OVC055 41 23 49% 33 29.86 0.0
05 20:35 NW 16 10.00 Overcast OVC050 41 21.2 45% 33 29.86 0.0
05 20:15 NW 20 10.00 Overcast OVC050 42.8 23 46% 35 29.85 0.0
05 19:55 W 15 G 21 10.00 Overcast OVC050 42.8 23 46% 36 29.85 0.0
05 19:35 NW 16 10.00 Overcast OVC050 42.8 23 46% 36 29.84 0.0
05 19:15 NW 17 G 25 10.00 Overcast OVC050 42.8 23 46% 35 29.84 0.0
05 18:55 NW 20 10.00 Overcast OVC050 42.8 23 46% 35 29.83 0.0
05 18:35 NW 22 10.00 Overcast and Breezy OVC050 44.6 23 43% 37 29.82 0.0
05 18:15 W 18 10.00 Overcast OVC050 44.6 23 43% 37 29.82 0.0
05 17:55 W 16 G 22 10.00 Overcast OVC050 44.6 24.8 46% 38 29.82 0.0
05 17:35 W 18 10.00 Overcast OVC050 46.4 23 40% 40 29.82 0.0
05 17:15 NW 15 G 22 10.00 Overcast OVC050 44.6 23 43% 38 29.81 0.0
05 16:55 W 18 10.00 Overcast OVC050 44.6 24.8 46% 37 29.81 0.0
05 16:35 NW 15 G 25 10.00 Overcast OVC050 44.6 23 43% 38 29.81 0.0
05 16:15 NW 20 10.00 Overcast OVC050 44.6 24.8 46% 37 29.81 0.0
05 15:55 W 23 10.00 Overcast and Breezy OVC049 44.6 24.8 46% 37 29.81 0.0
05 15:35 NW 17 10.00 Overcast OVC050 44.6 24.8 46% 38 29.81 0.0
05 15:15 NW 17 G 28 10.00 Overcast BKN050 OVC055 42.8 24.8 49% 35 29.81 0.0
05 14:55 W 17 G 26 10.00 Overcast OVC050 44.6 24.8 46% 38 29.81 0.0
05 14:35 NW 21 10.00 Overcast and Breezy BKN050 OVC055 44.6 24.8 46% 37 29.81 0.0
05 14:15 NW 18 10.00 Overcast OVC049 42.8 23 46% 35 29.81 0.0
05 13:55 W 14 G 22 10.00 Overcast OVC049 42.8 23 46% 36 29.81 0.0
05 13:35 NW 16 G 25 10.00 Overcast OVC050 42.8 23 46% 36 29.8 0.0
05 13:15 NW 18 G 28 10.00 Overcast BKN048 OVC055 42.8 23 46% 35 29.8 0.0
05 12:55 W 20 10.00 Overcast BKN048 OVC055 42.8 23 46% 35 29.8 0.0
05 12:35 NW 20 G 29 10.00 Overcast OVC050 42.8 23 46% 35 29.8 0.0
05 12:15 NW 16 G 23 10.00 Overcast BKN048 OVC055 41 23 49% 33 29.8 0.0
05 11:55 NW 21 10.00 Overcast and Breezy OVC046 41 23 49% 32 29.79 0.0
05 11:35 W 18 G 25 10.00 Overcast BKN044 OVC050 39.2 23 52% 31 29.8 0.0
05 11:15 NW 21 10.00 Overcast and Breezy OVC045 39.2 21.2 48% 30 29.79 0.0
05 10:55 NW 16 G 23 10.00 Overcast BKN044 OVC050 37.4 21.2 52% 29 29.79 0.0
05 10:35 NW 17 G 23 10.00 Overcast BKN044 OVC050 37.4 23 56% 29 29.79 0.0
05 10:15 NW 18 G 24 10.00 Overcast OVC044 37.4 21.2 52% 28 29.78 0.0
05 09:55 NW 18 10.00 Overcast BKN044 OVC050 37.4 21.2 52% 28 29.78 0.0
05 09:35 NW 21 G 26 10.00 Overcast and Breezy SCT042 OVC050 37.4 19.4 48% 28 29.77 0.0
05 09:15 NW 17 G 23 9.00 Light Snow BKN043 OVC050 37.4 21.2 52% 29 29.77 0.0
05 08:55 NW 22 G 28 10.00 Overcast and Breezy BKN048 OVC055 37.4 21.2 52% 27 29.76 0.0
05 08:35 NW 18 10.00 Mostly Cloudy FEW043 BKN050 BKN055 37.4 21.2 52% 28 29.75 0.0
05 08:15 NW 17 G 26 10.00 Mostly Cloudy BKN070 37.4 23 56% 29 29.75 0.0
05 07:55 NW 17 10.00 Overcast FEW038 OVC075 37.4 23 56% 29 29.74 0.0
05 07:35 NW 17 G 24 10.00 Mostly Cloudy SCT037 BKN075 37.4 23 56% 29 29.74 0.0
05 07:15 NW 15 G 24 10.00 Overcast OVC036 37.4 23 56% 29 29.73 0.0
05 06:55 NW 17 10.00 Mostly Cloudy BKN034 35.6 24.8 65% 26 29.72 0.0
05 06:35 W 14 G 20 10.00 Partly Cloudy SCT034 35.6 24.8 65% 27 29.72 0.0
05 06:15 W 15 G 22 10.00 Mostly Cloudy BKN035 35.6 24.8 65% 27 29.71 0.0
05 05:55 W 17 10.00 A Few Clouds FEW037 35.6 26.6 70% 26 29.7 0.0
05 05:35 W 15 G 25 10.00 A Few Clouds FEW039 35.6 26.6 70% 27 29.69 0.0
05 05:15 NW 21 10.00 Partly Cloudy and Breezy SCT040 35.6 26.6 70% 25 29.69 0.0
05 04:55 W 21 10.00 Partly Cloudy and Breezy SCT047 35.6 26.6 70% 25 29.68 0.0
05 04:35 NW 23 G 30 10.00 Overcast and Breezy SCT038 OVC047 37.4 28.4 70% 27 29.68 0.0
05 04:15 W 13 G 20 9.00 Light Rain FEW026 BKN034 OVC041 37.4 30.2 75% 30 29.67 0.0
05 03:55 NW 20 G 26 10.00 Overcast BKN032 OVC048 39.2 30.2 70% 30 29.66 0.0
05 03:35 W 14 10.00 Partly Cloudy FEW034 SCT047 37.4 32 81% 30 29.65 0.0
05 03:15 W 10 10.00 Partly Cloudy SCT050 37.4 32 81% 31 29.65 0.0
05 02:55 NW 15 G 21 10.00 Mostly Cloudy SCT037 BKN048 39.2 32 75% 31 29.65 0.0
05 02:35 NW 18 G 25 10.00 Overcast BKN036 BKN045 OVC055 41 30.2 66% 33 29.65 0.0
05 02:15 W 16 10.00 Partly Cloudy FEW037 SCT060 41 30.2 66% 33 29.64 0.0
05 01:55 W 14 G 21 10.00 Fair CLR 41 30.2 66% 34 29.64 0.0
05 01:35 W 15 10.00 A Few Clouds FEW070 41 28.4 61% 34 29.64 0.0
05 01:15 NW 16 10.00 Mostly Cloudy FEW060 BKN070 41 28.4 61% 33 29.64 0.0
05 00:55 NW 13 10.00 Overcast BKN060 OVC075 41 28.4 61% 34 29.64 0.0
05 00:35 N 6 10.00 Overcast FEW060 SCT065 OVC075 41 32 70% 38 29.64 0.0
05 00:15 NW 12 G 18 10.00 Overcast FEW043 BKN055 OVC075 42.8 26.6 53% 37 29.63 0.0
04 23:55 W 13 10.00 Mostly Cloudy FEW050 BKN060 BKN070 44.6 26.6 49% 39 29.63 0.0
04 23:35 W 14 10.00 Mostly Cloudy BKN070 44.6 26.6 49% 39 29.62 0.0
04 23:15 W 16 10.00 Overcast OVC070 44.6 26.6 49% 38 29.62 0.0
04 22:55 W 16 10.00 Overcast FEW045 FEW065 OVC075 44.6 26.6 49% 38 29.62 0.0
04 22:35 W 17 G 24 10.00 Overcast FEW065 OVC075 46.4 24.8 43% 40 29.62 0.0
04 22:15 W 23 10.00 Overcast and Breezy OVC075 46.4 24.8 43% 39 29.61 0.0
04 21:55 W 14 G 20 10.00 Overcast OVC075 46.4 24.8 43% 41 29.61 0.0
04 21:35 W 16 10.00 Overcast SCT070 OVC080 46.4 24.8 43% 40 29.61 0.0
04 21:15 W 16 10.00 Overcast FEW065 OVC075 46.4 24.8 43% 40 29.6 0.0
04 20:55 W 21 10.00 Overcast and Breezy SCT070 OVC080 46.4 24.8 43% 39 29.59 0.0
04 20:35 W 17 10.00 Overcast SCT070 OVC080 46.4 23 40% 40 29.58 0.0
04 20:15 W 24 G 32 10.00 Overcast and Breezy FEW065 OVC075 46.4 24.8 43% 39 29.58 0.0
04 19:55 W 21 G 28 10.00 Overcast and Breezy OVC075 46.4 24.8 43% 39 29.57 0.0
04 19:35 W 23 10.00 Overcast and Breezy OVC075 48.2 24.8 40% 41 29.57 0.0
04 19:15 W 20 G 28 10.00 Overcast BKN065 OVC075 48.2 26.6 43% 42 29.56 0.0
04 18:55 W 25 10.00 Mostly Cloudy and Breezy BKN060 48.2 26.6 43% 41 29.56 0.0
04 18:35 W 21 G 30 10.00 Overcast and Breezy OVC060 48.2 28.4 46% 42 29.57 0.0
04 18:15 W 24 G 32 10.00 Overcast and Breezy OVC060 48.2 28.4 46% 41 29.56 0.0
04 17:55 W 24 G 30 10.00 Overcast and Breezy OVC060 48.2 30.2 50% 41 29.55 0.0
04 17:35 W 25 G 33 10.00 Overcast and Breezy SCT050 OVC060 48.2 28.4 46% 41 29.55 0.0
04 17:15 W 26 10.00 Overcast and Windy BKN050 OVC065 48.2 30.2 50% 41 29.54 0.0
04 16:55 W 26 G 36 10.00 Overcast and Windy BKN050 OVC065 50 30.2 47% 43 29.52 0.0
04 16:35 W 21 10.00 Overcast and Breezy BKN050 OVC070 50 30.2 47% 44 29.51 0.0
04 16:15 W 24 10.00 Overcast and Breezy FEW050 BKN060 OVC070 50 30.2 47% 43 29.5 0.0
04 15:55 W 25 G 36 10.00 Overcast and Breezy BKN060 OVC070 50 32 50% 43 29.5 0.0
04 15:35 W 23 G 30 10.00 Overcast and Breezy BKN060 OVC070 50 30.2 47% 44 29.49 0.0
04 15:15 W 25 G 32 10.00 Overcast and Breezy BKN060 OVC070 51.8 30.2 44% 29.49 0.0
04 14:55 NW 25 G 32 10.00 Overcast and Breezy OVC060 51.8 30.2 44% 29.48 0.0
04 14:35 W 30 G 38 10.00 Mostly Cloudy and Windy BKN055 BKN065 51.8 30.2 44% 29.47 0.0
04 14:15 W 25 G 36 10.00 Overcast and Breezy FEW050 OVC060 51.8 30.2 44% 29.46 0.0
04 13:55 NW 26 G 35 10.00 Overcast and Windy BKN055 OVC065 53.6 32 44% 29.45 0.0
04 13:35 W 25 G 43 10.00 Mostly Cloudy and Breezy BKN055 BKN060 53.6 30.2 41% 29.44 0.0
04 13:15 W 30 G 36 10.00 Mostly Cloudy and Windy BKN050 BKN060 51.8 33.8 50% 29.43 0.0
04 12:55 NW 24 G 38 10.00 Mostly Cloudy and Breezy FEW048 BKN060 53.6 32 44% 29.42 0.0
04 12:35 W 26 G 33 10.00 Overcast and Windy BKN047 OVC055 51.8 33.8 50% 29.42 0.0
04 12:15 W 24 G 31 10.00 Overcast and Breezy BKN049 OVC060 51.8 33.8 50% 29.41 0.0
04 11:55 W 25 G 33 10.00 Overcast and Breezy BKN048 OVC055 51.8 33.8 50% 29.41 0.0
04 11:35 W 31 G 38 10.00 Overcast and Windy BKN050 OVC060 53.6 33.8 47% 29.39 0.0
04 11:15 W 25 G 38 10.00 Overcast and Breezy SCT048 OVC055 53.6 33.8 47% 29.38 0.0
04 10:55 W 31 G 37 10.00 Overcast and Windy BKN048 OVC055 51.8 33.8 50% 29.38 0.0
04 10:35 W 30 G 38 10.00 Overcast and Windy OVC050 53.6 33.8 47% 29.36 0.0
04 10:15 NW 32 G 38 10.00 Overcast and Windy BKN050 OVC055 53.6 33.8 47% 29.35 0.0
04 09:55 W 29 G 38 10.00 Overcast and Windy BKN050 OVC055 53.6 35.6 51% 29.34 0.0
04 09:35 W 30 G 37 10.00 Overcast and Windy SCT047 OVC055 53.6 35.6 51% 29.34 0.0
04 09:15 W 25 G 32 10.00 Mostly Cloudy and Breezy SCT044 BKN050 BKN055 53.6 39.2 58% 29.33 0.0
04 08:55 W 29 G 35 10.00 Overcast and Windy BKN043 OVC049 53.6 39.2 58% 29.32 0.0
04 08:35 W 35 10.00 Mostly Cloudy and Windy SCT042 SCT049 BKN110 53.6 39.2 58% 29.31 0.0
04 08:15 W 15 G 21 10.00 Mostly Cloudy FEW037 FEW080 BKN110 53.6 41 63% 29.3 0.0
04 07:55 W 15 G 21 10.00 Overcast FEW039 OVC100 53.6 41 63% 29.29 0.0
04 07:35 W 25 G 39 10.00 Overcast and Breezy FEW039 BKN060 OVC095 53.6 41 63% 29.3 0.0
04 07:15 W 17 10.00 Overcast OVC060 55.4 41 59% 29.29 0.0
04 06:55 W 16 G 23 10.00 Mostly Cloudy SCT065 BKN120 55.4 41 59% 29.27 0.0
04 06:35 NW 21 G 31 10.00 Partly Cloudy and Breezy SCT120 55.4 41 59% 29.26 0.0
04 06:15 NW 31 10.00 Fair and Windy CLR 55.4 41 59% 29.26 0.0
04 05:55 SW 25 G 37 10.00 Fair and Breezy CLR 60.8 32 34% 29.22 0.0
04 05:35 SW 20 G 25 10.00 A Few Clouds FEW120 60.8 32 34% 29.2 0.0
04 05:15 SW 21 G 26 10.00 Mostly Cloudy and Breezy FEW055 SCT075 BKN110 60.8 32 34% 29.21 0.0
Date Time (cdt) Wind (mph) Vis. (mi.) Weather Sky Cond. Air Dwpt Max. Min. Relative Humidity Wind Chill (°F) Heat Index (°F) altimeter (in) sea level (mb) 1 hr 3 hr 6 hr
6 hour
Temperature (ºF) Pressure Precipitation (in)